sensor_id;sensor_type;location;lat;lon;timestamp;P1;durP1;ratioP1;P2;durP2;ratioP2
15002;SDS011;7597;53.590;10.020;2022-09-21T00:00:14;6.03;;;3.40;;
15002;SDS011;7597;53.590;10.020;2022-09-21T00:02:41;7.47;;;3.73;;
15002;SDS011;7597;53.590;10.020;2022-09-21T00:05:08;9.10;;;3.67;;
15002;SDS011;7597;53.590;10.020;2022-09-21T00:07:34;9.77;;;3.97;;
15002;SDS011;7597;53.590;10.020;2022-09-21T00:10:01;6.77;;;4.10;;
15002;SDS011;7597;53.590;10.020;2022-09-21T00:12:28;5.80;;;3.80;;
15002;SDS011;7597;53.590;10.020;2022-09-21T00:14:54;8.30;;;3.80;;
15002;SDS011;7597;53.590;10.020;2022-09-21T00:17:21;7.90;;;3.50;;
15002;SDS011;7597;53.590;10.020;2022-09-21T00:19:48;6.57;;;3.53;;
15002;SDS011;7597;53.590;10.020;2022-09-21T00:22:15;12.13;;;6.60;;
15002;SDS011;7597;53.590;10.020;2022-09-21T00:24:42;8.20;;;5.10;;
15002;SDS011;7597;53.590;10.020;2022-09-21T00:27:09;7.37;;;4.70;;
15002;SDS011;7597;53.590;10.020;2022-09-21T00:29:36;10.50;;;4.20;;
15002;SDS011;7597;53.590;10.020;2022-09-21T00:32:03;5.43;;;3.47;;
15002;SDS011;7597;53.590;10.020;2022-09-21T00:34:30;8.27;;;3.93;;
15002;SDS011;7597;53.590;10.020;2022-09-21T00:36:57;7.27;;;3.97;;
15002;SDS011;7597;53.590;10.020;2022-09-21T00:39:23;8.60;;;4.23;;
15002;SDS011;7597;53.590;10.020;2022-09-21T00:41:50;7.23;;;4.00;;
15002;SDS011;7597;53.590;10.020;2022-09-21T00:44:27;7.87;;;3.80;;
15002;SDS011;7597;53.590;10.020;2022-09-21T00:46:54;8.20;;;3.90;;
15002;SDS011;7597;53.590;10.020;2022-09-21T00:49:20;8.20;;;3.93;;
15002;SDS011;7597;53.590;10.020;2022-09-21T00:51:47;7.63;;;4.10;;
15002;SDS011;7597;53.590;10.020;2022-09-21T00:54:16;8.97;;;4.40;;
15002;SDS011;7597;53.590;10.020;2022-09-21T00:56:41;8.67;;;4.07;;
15002;SDS011;7597;53.590;10.020;2022-09-21T00:59:07;8.63;;;3.73;;
15002;SDS011;7597;53.590;10.020;2022-09-21T01:01:34;7.37;;;3.97;;
15002;SDS011;7597;53.590;10.020;2022-09-21T01:04:02;11.87;;;4.47;;
15002;SDS011;7597;53.590;10.020;2022-09-21T01:06:29;7.27;;;4.27;;
15002;SDS011;7597;53.590;10.020;2022-09-21T01:08:55;11.80;;;4.27;;
15002;SDS011;7597;53.590;10.020;2022-09-21T01:11:31;8.43;;;3.67;;
15002;SDS011;7597;53.590;10.020;2022-09-21T01:14:04;8.73;;;4.00;;
15002;SDS011;7597;53.590;10.020;2022-09-21T01:16:46;6.70;;;4.20;;
15002;SDS011;7597;53.590;10.020;2022-09-21T01:19:19;6.47;;;4.00;;
15002;SDS011;7597;53.590;10.020;2022-09-21T01:21:54;8.43;;;4.20;;
15002;SDS011;7597;53.590;10.020;2022-09-21T01:24:35;12.90;;;4.37;;
15002;SDS011;7597;53.590;10.020;2022-09-21T01:29:50;8.80;;;4.30;;
15002;SDS011;7597;53.590;10.020;2022-09-21T01:32:18;9.87;;;4.30;;
15002;SDS011;7597;53.590;10.020;2022-09-21T01:34:44;7.60;;;4.20;;
15002;SDS011;7597;53.590;10.020;2022-09-21T01:37:11;8.23;;;4.97;;
15002;SDS011;7597;53.590;10.020;2022-09-21T01:42:39;12.53;;;5.53;;
15002;SDS011;7597;53.590;10.020;2022-09-21T01:45:06;9.13;;;5.23;;
15002;SDS011;7597;53.590;10.020;2022-09-21T01:47:34;12.10;;;5.57;;
15002;SDS011;7597;53.590;10.020;2022-09-21T01:50:00;10.50;;;6.00;;
15002;SDS011;7597;53.590;10.020;2022-09-21T01:52:31;13.73;;;6.17;;
15002;SDS011;7597;53.590;10.020;2022-09-21T01:54:57;11.10;;;5.77;;
15002;SDS011;7597;53.590;10.020;2022-09-21T01:57:27;13.17;;;5.73;;
15002;SDS011;7597;53.590;10.020;2022-09-21T01:59:54;9.30;;;4.63;;
15002;SDS011;7597;53.590;10.020;2022-09-21T02:02:40;7.40;;;4.53;;
15002;SDS011;7597;53.590;10.020;2022-09-21T02:05:05;7.23;;;4.90;;
15002;SDS011;7597;53.590;10.020;2022-09-21T02:07:32;7.70;;;4.70;;
15002;SDS011;7597;53.590;10.020;2022-09-21T02:09:59;11.30;;;4.90;;
15002;SDS011;7597;53.590;10.020;2022-09-21T02:12:26;9.73;;;5.20;;
15002;SDS011;7597;53.590;10.020;2022-09-21T02:14:54;7.60;;;5.00;;
15002;SDS011;7597;53.590;10.020;2022-09-21T02:20:16;8.13;;;5.33;;
15002;SDS011;7597;53.590;10.020;2022-09-21T02:22:49;11.37;;;5.43;;
15002;SDS011;7597;53.590;10.020;2022-09-21T02:25:12;10.57;;;5.87;;
15002;SDS011;7597;53.590;10.020;2022-09-21T02:27:48;9.27;;;5.37;;
15002;SDS011;7597;53.590;10.020;2022-09-21T02:30:18;13.40;;;5.50;;
15002;SDS011;7597;53.590;10.020;2022-09-21T02:32:54;9.83;;;5.77;;
15002;SDS011;7597;53.590;10.020;2022-09-21T02:38:16;11.13;;;6.00;;
15002;SDS011;7597;53.590;10.020;2022-09-21T02:40:49;8.97;;;5.63;;
15002;SDS011;7597;53.590;10.020;2022-09-21T02:43:19;9.63;;;5.77;;
15002;SDS011;7597;53.590;10.020;2022-09-21T02:45:51;9.57;;;5.63;;
15002;SDS011;7597;53.590;10.020;2022-09-21T02:48:17;10.13;;;5.60;;
15002;SDS011;7597;53.590;10.020;2022-09-21T02:50:45;11.10;;;6.37;;
15002;SDS011;7597;53.590;10.020;2022-09-21T02:53:11;14.40;;;6.87;;
15002;SDS011;7597;53.590;10.020;2022-09-21T02:55:37;9.77;;;6.00;;
15002;SDS011;7597;53.590;10.020;2022-09-21T02:58:04;9.73;;;6.07;;
15002;SDS011;7597;53.590;10.020;2022-09-21T03:00:31;9.50;;;6.33;;
15002;SDS011;7597;53.590;10.020;2022-09-21T03:02:58;10.40;;;6.50;;
15002;SDS011;7597;53.590;10.020;2022-09-21T03:05:25;13.90;;;7.20;;
15002;SDS011;7597;53.590;10.020;2022-09-21T03:07:51;13.33;;;7.17;;
15002;SDS011;7597;53.590;10.020;2022-09-21T03:10:18;11.07;;;6.33;;
15002;SDS011;7597;53.590;10.020;2022-09-21T03:12:45;12.17;;;6.43;;
15002;SDS011;7597;53.590;10.020;2022-09-21T03:15:11;9.53;;;6.27;;
15002;SDS011;7597;53.590;10.020;2022-09-21T03:17:38;11.70;;;6.80;;
15002;SDS011;7597;53.590;10.020;2022-09-21T03:20:05;12.40;;;6.53;;
15002;SDS011;7597;53.590;10.020;2022-09-21T03:22:32;12.07;;;6.50;;
15002;SDS011;7597;53.590;10.020;2022-09-21T03:24:59;12.43;;;7.50;;
15002;SDS011;7597;53.590;10.020;2022-09-21T03:27:25;16.10;;;7.83;;
15002;SDS011;7597;53.590;10.020;2022-09-21T03:29:52;17.43;;;8.70;;
15002;SDS011;7597;53.590;10.020;2022-09-21T03:32:19;15.97;;;9.20;;
15002;SDS011;7597;53.590;10.020;2022-09-21T03:34:45;17.47;;;9.53;;
15002;SDS011;7597;53.590;10.020;2022-09-21T03:37:12;16.80;;;9.20;;
15002;SDS011;7597;53.590;10.020;2022-09-21T03:39:39;11.60;;;7.13;;
15002;SDS011;7597;53.590;10.020;2022-09-21T03:42:06;14.80;;;7.47;;
15002;SDS011;7597;53.590;10.020;2022-09-21T03:44:32;14.83;;;7.67;;
15002;SDS011;7597;53.590;10.020;2022-09-21T03:46:59;13.60;;;7.73;;
15002;SDS011;7597;53.590;10.020;2022-09-21T03:49:26;17.43;;;7.70;;
15002;SDS011;7597;53.590;10.020;2022-09-21T03:51:52;10.00;;;7.60;;
15002;SDS011;7597;53.590;10.020;2022-09-21T03:54:19;14.70;;;7.83;;
15002;SDS011;7597;53.590;10.020;2022-09-21T03:56:46;13.40;;;7.43;;
15002;SDS011;7597;53.590;10.020;2022-09-21T03:59:12;13.17;;;6.63;;
15002;SDS011;7597;53.590;10.020;2022-09-21T04:01:40;13.03;;;7.23;;
15002;SDS011;7597;53.590;10.020;2022-09-21T04:04:06;18.60;;;8.50;;
15002;SDS011;7597;53.590;10.020;2022-09-21T04:06:33;13.90;;;7.77;;
15002;SDS011;7597;53.590;10.020;2022-09-21T04:08:59;16.30;;;8.13;;
15002;SDS011;7597;53.590;10.020;2022-09-21T04:11:27;15.47;;;8.63;;
15002;SDS011;7597;53.590;10.020;2022-09-21T04:13:54;16.07;;;8.50;;
15002;SDS011;7597;53.590;10.020;2022-09-21T04:16:25;23.10;;;9.47;;
15002;SDS011;7597;53.590;10.020;2022-09-21T04:18:56;15.77;;;8.67;;
15002;SDS011;7597;53.590;10.020;2022-09-21T04:21:24;20.90;;;9.03;;
15002;SDS011;7597;53.590;10.020;2022-09-21T04:23:52;19.77;;;9.83;;
15002;SDS011;7597;53.590;10.020;2022-09-21T04:26:24;12.87;;;8.43;;
15002;SDS011;7597;53.590;10.020;2022-09-21T04:28:59;16.73;;;9.60;;
15002;SDS011;7597;53.590;10.020;2022-09-21T04:31:25;19.93;;;10.10;;
15002;SDS011;7597;53.590;10.020;2022-09-21T04:33:53;21.33;;;9.53;;
15002;SDS011;7597;53.590;10.020;2022-09-21T04:36:20;62.17;;;14.53;;
15002;SDS011;7597;53.590;10.020;2022-09-21T04:38:47;63.17;;;14.10;;
15002;SDS011;7597;53.590;10.020;2022-09-21T04:41:14;22.90;;;11.17;;
15002;SDS011;7597;53.590;10.020;2022-09-21T04:43:40;37.53;;;11.87;;
15002;SDS011;7597;53.590;10.020;2022-09-21T04:46:07;17.83;;;10.17;;
15002;SDS011;7597;53.590;10.020;2022-09-21T04:48:33;20.60;;;10.70;;
15002;SDS011;7597;53.590;10.020;2022-09-21T04:51:00;29.30;;;10.77;;
15002;SDS011;7597;53.590;10.020;2022-09-21T04:53:27;82.47;;;13.00;;
15002;SDS011;7597;53.590;10.020;2022-09-21T04:55:53;414.83;;;34.13;;
15002;SDS011;7597;53.590;10.020;2022-09-21T04:58:21;321.43;;;25.93;;
15002;SDS011;7597;53.590;10.020;2022-09-21T05:00:48;217.77;;;19.57;;
15002;SDS011;7597;53.590;10.020;2022-09-21T05:03:15;430.90;;;33.60;;
15002;SDS011;7597;53.590;10.020;2022-09-21T05:05:52;503.73;;;38.80;;
15002;SDS011;7597;53.590;10.020;2022-09-21T05:08:19;355.00;;;27.70;;
15002;SDS011;7597;53.590;10.020;2022-09-21T05:10:47;25.97;;;9.70;;
15002;SDS011;7597;53.590;10.020;2022-09-21T05:13:14;22.47;;;10.37;;
15002;SDS011;7597;53.590;10.020;2022-09-21T05:15:42;12.77;;;8.97;;
15002;SDS011;7597;53.590;10.020;2022-09-21T05:18:29;11.47;;;8.10;;
15002;SDS011;7597;53.590;10.020;2022-09-21T05:20:57;14.77;;;9.20;;
15002;SDS011;7597;53.590;10.020;2022-09-21T05:23:24;13.20;;;9.20;;
15002;SDS011;7597;53.590;10.020;2022-09-21T05:25:50;18.10;;;11.00;;
15002;SDS011;7597;53.590;10.020;2022-09-21T05:28:17;20.10;;;12.07;;
15002;SDS011;7597;53.590;10.020;2022-09-21T05:30:45;16.00;;;10.43;;
15002;SDS011;7597;53.590;10.020;2022-09-21T05:33:12;15.43;;;10.63;;
15002;SDS011;7597;53.590;10.020;2022-09-21T05:35:41;16.77;;;11.00;;
15002;SDS011;7597;53.590;10.020;2022-09-21T05:38:09;12.87;;;9.47;;
15002;SDS011;7597;53.590;10.020;2022-09-21T05:40:38;16.63;;;9.37;;
15002;SDS011;7597;53.590;10.020;2022-09-21T05:43:08;15.53;;;9.50;;
15002;SDS011;7597;53.590;10.020;2022-09-21T05:45:34;13.87;;;9.27;;
15002;SDS011;7597;53.590;10.020;2022-09-21T05:48:05;18.13;;;10.53;;
15002;SDS011;7597;53.590;10.020;2022-09-21T05:50:33;17.80;;;11.70;;
15002;SDS011;7597;53.590;10.020;2022-09-21T05:53:32;17.27;;;10.67;;
15002;SDS011;7597;53.590;10.020;2022-09-21T05:56:17;13.20;;;9.53;;
15002;SDS011;7597;53.590;10.020;2022-09-21T05:58:54;15.67;;;9.57;;
15002;SDS011;7597;53.590;10.020;2022-09-21T06:04:09;19.43;;;13.23;;
15002;SDS011;7597;53.590;10.020;2022-09-21T06:06:35;20.03;;;13.63;;
15002;SDS011;7597;53.590;10.020;2022-09-21T06:09:01;18.60;;;13.50;;
15002;SDS011;7597;53.590;10.020;2022-09-21T06:11:28;15.57;;;12.57;;
15002;SDS011;7597;53.590;10.020;2022-09-21T06:13:55;13.13;;;10.93;;
15002;SDS011;7597;53.590;10.020;2022-09-21T06:16:21;13.10;;;10.97;;
15002;SDS011;7597;53.590;10.020;2022-09-21T06:18:48;13.65;;;9.35;;
15002;SDS011;7597;53.590;10.020;2022-09-21T06:21:15;9.52;;;7.87;;
15002;SDS011;7597;53.590;10.020;2022-09-21T06:23:42;11.30;;;10.02;;
15002;SDS011;7597;53.590;10.020;2022-09-21T06:26:09;18.05;;;15.27;;
15002;SDS011;7597;53.590;10.020;2022-09-21T06:28:36;5.75;;;5.25;;
15002;SDS011;7597;53.590;10.020;2022-09-21T06:31:03;5.40;;;4.12;;
15002;SDS011;7597;53.590;10.020;2022-09-21T06:33:29;4.95;;;4.45;;
15002;SDS011;7597;53.590;10.020;2022-09-21T06:35:57;5.68;;;4.97;;
15002;SDS011;7597;53.590;10.020;2022-09-21T06:38:23;8.00;;;5.05;;
15002;SDS011;7597;53.590;10.020;2022-09-21T06:40:50;6.87;;;4.30;;
15002;SDS011;7597;53.590;10.020;2022-09-21T06:43:19;7.22;;;5.15;;
15002;SDS011;7597;53.590;10.020;2022-09-21T06:45:51;6.85;;;5.35;;
15002;SDS011;7597;53.590;10.020;2022-09-21T06:48:17;7.62;;;5.72;;
15002;SDS011;7597;53.590;10.020;2022-09-21T06:50:44;7.85;;;5.75;;
15002;SDS011;7597;53.590;10.020;2022-09-21T06:53:11;6.45;;;4.65;;
15002;SDS011;7597;53.590;10.020;2022-09-21T06:55:38;7.78;;;6.60;;
15002;SDS011;7597;53.590;10.020;2022-09-21T06:58:06;10.70;;;5.62;;
15002;SDS011;7597;53.590;10.020;2022-09-21T07:00:32;11.40;;;5.35;;
15002;SDS011;7597;53.590;10.020;2022-09-21T07:03:00;8.32;;;5.75;;
15002;SDS011;7597;53.590;10.020;2022-09-21T07:05:27;14.23;;;11.48;;
15002;SDS011;7597;53.590;10.020;2022-09-21T07:07:56;9.57;;;8.27;;
15002;SDS011;7597;53.590;10.020;2022-09-21T07:10:23;7.87;;;6.25;;
15002;SDS011;7597;53.590;10.020;2022-09-21T07:12:49;8.60;;;5.97;;
15002;SDS011;7597;53.590;10.020;2022-09-21T07:15:17;12.15;;;9.10;;
15002;SDS011;7597;53.590;10.020;2022-09-21T07:17:47;8.38;;;7.40;;
15002;SDS011;7597;53.590;10.020;2022-09-21T07:20:15;15.02;;;12.10;;
15002;SDS011;7597;53.590;10.020;2022-09-21T07:22:42;12.65;;;9.60;;
15002;SDS011;7597;53.590;10.020;2022-09-21T07:25:09;9.93;;;7.32;;
15002;SDS011;7597;53.590;10.020;2022-09-21T07:27:36;15.73;;;14.15;;
15002;SDS011;7597;53.590;10.020;2022-09-21T07:30:06;11.02;;;8.95;;
15002;SDS011;7597;53.590;10.020;2022-09-21T07:32:33;11.73;;;7.20;;
15002;SDS011;7597;53.590;10.020;2022-09-21T07:35:01;12.13;;;6.32;;
15002;SDS011;7597;53.590;10.020;2022-09-21T07:37:27;9.15;;;6.50;;
15002;SDS011;7597;53.590;10.020;2022-09-21T07:39:57;7.82;;;5.80;;
15002;SDS011;7597;53.590;10.020;2022-09-21T07:42:25;9.90;;;6.50;;
15002;SDS011;7597;53.590;10.020;2022-09-21T07:44:52;9.70;;;6.40;;
15002;SDS011;7597;53.590;10.020;2022-09-21T08:01:47;7.85;;;6.57;;
15002;SDS011;7597;53.590;10.020;2022-09-21T08:04:21;10.35;;;6.07;;
15002;SDS011;7597;53.590;10.020;2022-09-21T08:06:49;7.68;;;6.05;;
15002;SDS011;7597;53.590;10.020;2022-09-21T08:09:17;8.25;;;5.90;;
15002;SDS011;7597;53.590;10.020;2022-09-21T08:11:43;7.25;;;5.45;;
15002;SDS011;7597;53.590;10.020;2022-09-21T08:14:11;8.65;;;7.22;;
15002;SDS011;7597;53.590;10.020;2022-09-21T08:16:38;6.93;;;4.90;;
15002;SDS011;7597;53.590;10.020;2022-09-21T08:19:05;5.87;;;4.85;;
15002;SDS011;7597;53.590;10.020;2022-09-21T08:21:32;6.85;;;4.30;;
15002;SDS011;7597;53.590;10.020;2022-09-21T08:23:58;7.60;;;4.93;;
15002;SDS011;7597;53.590;10.020;2022-09-21T08:26:27;6.80;;;4.50;;
15002;SDS011;7597;53.590;10.020;2022-09-21T08:28:55;6.78;;;4.00;;
15002;SDS011;7597;53.590;10.020;2022-09-21T08:31:22;5.62;;;4.22;;
15002;SDS011;7597;53.590;10.020;2022-09-21T08:33:50;6.85;;;4.78;;
15002;SDS011;7597;53.590;10.020;2022-09-21T08:36:16;5.12;;;3.15;;
15002;SDS011;7597;53.590;10.020;2022-09-21T08:38:43;5.25;;;3.25;;
15002;SDS011;7597;53.590;10.020;2022-09-21T08:41:12;15.95;;;13.98;;
15002;SDS011;7597;53.590;10.020;2022-09-21T08:43:39;6.28;;;4.18;;
15002;SDS011;7597;53.590;10.020;2022-09-21T08:46:06;6.87;;;4.68;;
15002;SDS011;7597;53.590;10.020;2022-09-21T08:48:33;12.15;;;10.90;;
15002;SDS011;7597;53.590;10.020;2022-09-21T08:51:01;4.22;;;2.80;;
15002;SDS011;7597;53.590;10.020;2022-09-21T08:53:30;16.67;;;15.10;;
15002;SDS011;7597;53.590;10.020;2022-09-21T08:55:56;7.62;;;6.90;;
15002;SDS011;7597;53.590;10.020;2022-09-21T08:58:24;23.05;;;20.77;;
15002;SDS011;7597;53.590;10.020;2022-09-21T09:03:37;3.80;;;2.50;;
15002;SDS011;7597;53.590;10.020;2022-09-21T09:06:07;9.60;;;8.70;;
15002;SDS011;7597;53.590;10.020;2022-09-21T09:08:44;3.42;;;3.12;;
15002;SDS011;7597;53.590;10.020;2022-09-21T09:11:17;6.57;;;3.65;;
15002;SDS011;7597;53.590;10.020;2022-09-21T09:13:50;10.73;;;9.48;;
15002;SDS011;7597;53.590;10.020;2022-09-21T09:18:52;8.65;;;4.18;;
15002;SDS011;7597;53.590;10.020;2022-09-21T09:24:09;3.42;;;2.90;;
15002;SDS011;7597;53.590;10.020;2022-09-21T09:26:52;4.07;;;2.87;;
15002;SDS011;7597;53.590;10.020;2022-09-21T09:29:26;4.28;;;3.22;;
15002;SDS011;7597;53.590;10.020;2022-09-21T09:31:51;10.40;;;9.32;;
15002;SDS011;7597;53.590;10.020;2022-09-21T09:34:22;5.25;;;4.37;;
15002;SDS011;7597;53.590;10.020;2022-09-21T09:36:55;4.43;;;3.20;;
15002;SDS011;7597;53.590;10.020;2022-09-21T09:39:19;5.87;;;3.92;;
15002;SDS011;7597;53.590;10.020;2022-09-21T09:42:12;4.53;;;3.47;;
15002;SDS011;7597;53.590;10.020;2022-09-21T09:48:31;3.80;;;2.97;;
15002;SDS011;7597;53.590;10.020;2022-09-21T09:50:41;7.03;;;5.87;;
15002;SDS011;7597;53.590;10.020;2022-09-21T09:52:59;4.12;;;3.72;;
15002;SDS011;7597;53.590;10.020;2022-09-21T09:55:25;3.83;;;2.72;;
15002;SDS011;7597;53.590;10.020;2022-09-21T09:57:53;6.32;;;4.70;;
15002;SDS011;7597;53.590;10.020;2022-09-21T10:00:19;5.45;;;4.75;;
15002;SDS011;7597;53.590;10.020;2022-09-21T10:02:47;20.37;;;18.02;;
15002;SDS011;7597;53.590;10.020;2022-09-21T10:05:18;27.33;;;8.93;;
15002;SDS011;7597;53.590;10.020;2022-09-21T10:07:47;3.35;;;2.10;;
15002;SDS011;7597;53.590;10.020;2022-09-21T10:12:52;13.30;;;12.10;;
15002;SDS011;7597;53.590;10.020;2022-09-21T10:15:19;2.03;;;1.80;;
15002;SDS011;7597;53.590;10.020;2022-09-21T10:17:46;16.17;;;14.57;;
15002;SDS011;7597;53.590;10.020;2022-09-21T10:20:15;23.00;;;20.58;;
15002;SDS011;7597;53.590;10.020;2022-09-21T10:22:45;10.65;;;7.22;;
15002;SDS011;7597;53.590;10.020;2022-09-21T10:25:16;6.87;;;4.60;;
15002;SDS011;7597;53.590;10.020;2022-09-21T10:27:44;43.40;;;38.65;;
15002;SDS011;7597;53.590;10.020;2022-09-21T10:30:45;6.12;;;5.43;;
15002;SDS011;7597;53.590;10.020;2022-09-21T10:32:58;3.28;;;1.50;;
15002;SDS011;7597;53.590;10.020;2022-09-21T10:35:25;6.25;;;4.25;;
15002;SDS011;7597;53.590;10.020;2022-09-21T10:40:30;25.33;;;22.23;;
15002;SDS011;7597;53.590;10.020;2022-09-21T10:42:58;17.92;;;16.17;;
15002;SDS011;7597;53.590;10.020;2022-09-21T10:45:25;2.17;;;1.95;;
15002;SDS011;7597;53.590;10.020;2022-09-21T10:50:34;2.45;;;1.55;;
15002;SDS011;7597;53.590;10.020;2022-09-21T10:53:09;1.87;;;1.42;;
15002;SDS011;7597;53.590;10.020;2022-09-21T10:55:28;1.33;;;1.23;;
15002;SDS011;7597;53.590;10.020;2022-09-21T10:57:55;1.45;;;1.35;;
15002;SDS011;7597;53.590;10.020;2022-09-21T11:00:27;1.40;;;1.30;;
15002;SDS011;7597;53.590;10.020;2022-09-21T11:02:54;2.10;;;1.70;;
15002;SDS011;7597;53.590;10.020;2022-09-21T11:05:22;9.23;;;8.43;;
15002;SDS011;7597;53.590;10.020;2022-09-21T11:07:51;1.30;;;1.20;;
15002;SDS011;7597;53.590;10.020;2022-09-21T11:10:27;1.73;;;1.60;;
15002;SDS011;7597;53.590;10.020;2022-09-21T11:12:57;45.53;;;41.00;;
15002;SDS011;7597;53.590;10.020;2022-09-21T11:15:32;6.45;;;5.25;;
15002;SDS011;7597;53.590;10.020;2022-09-21T11:18:04;1.37;;;1.27;;
15002;SDS011;7597;53.590;10.020;2022-09-21T11:20:38;3.00;;;2.70;;
15002;SDS011;7597;53.590;10.020;2022-09-21T11:25:55;5.37;;;4.82;;
15002;SDS011;7597;53.590;10.020;2022-09-21T11:28:24;16.35;;;11.52;;
15002;SDS011;7597;53.590;10.020;2022-09-21T11:31:02;1.62;;;1.30;;
15002;SDS011;7597;53.590;10.020;2022-09-21T11:33:32;6.97;;;6.30;;
15002;SDS011;7597;53.590;10.020;2022-09-21T11:36:01;3.03;;;2.78;;
15002;SDS011;7597;53.590;10.020;2022-09-21T11:38:33;9.48;;;8.50;;
15002;SDS011;7597;53.590;10.020;2022-09-21T11:41:00;4.15;;;3.35;;
15002;SDS011;7597;53.590;10.020;2022-09-21T11:44:00;51.28;;;45.80;;
15002;SDS011;7597;53.590;10.020;2022-09-21T11:46:28;13.52;;;12.10;;
15002;SDS011;7597;53.590;10.020;2022-09-21T11:49:06;30.33;;;27.10;;
15002;SDS011;7597;53.590;10.020;2022-09-21T11:51:55;3.37;;;3.00;;
15002;SDS011;7597;53.590;10.020;2022-09-21T11:54:30;2.00;;;1.77;;
15002;SDS011;7597;53.590;10.020;2022-09-21T11:57:16;1.67;;;1.58;;
15002;SDS011;7597;53.590;10.020;2022-09-21T12:05:26;4.60;;;3.70;;
15002;SDS011;7597;53.590;10.020;2022-09-21T12:11:14;1.35;;;1.25;;
15002;SDS011;7597;53.590;10.020;2022-09-21T12:16:52;2.65;;;1.58;;
15002;SDS011;7597;53.590;10.020;2022-09-21T12:22:17;3.37;;;2.75;;
15002;SDS011;7597;53.590;10.020;2022-09-21T12:24:50;3.08;;;2.00;;
15002;SDS011;7597;53.590;10.020;2022-09-21T12:27:35;3.83;;;3.37;;
15002;SDS011;7597;53.590;10.020;2022-09-21T12:30:03;4.03;;;3.58;;
15002;SDS011;7597;53.590;10.020;2022-09-21T12:33:05;2.22;;;1.60;;
15002;SDS011;7597;53.590;10.020;2022-09-21T12:35:46;3.20;;;2.90;;
15002;SDS011;7597;53.590;10.020;2022-09-21T12:39:22;2.12;;;1.92;;
15002;SDS011;7597;53.590;10.020;2022-09-21T12:41:01;1.87;;;1.70;;
15002;SDS011;7597;53.590;10.020;2022-09-21T12:43:33;2.17;;;1.95;;
15002;SDS011;7597;53.590;10.020;2022-09-21T12:46:06;1.92;;;1.80;;
15002;SDS011;7597;53.590;10.020;2022-09-21T12:48:43;1.15;;;0.98;;
15002;SDS011;7597;53.590;10.020;2022-09-21T12:51:13;1.50;;;1.40;;
15002;SDS011;7597;53.590;10.020;2022-09-21T12:53:45;1.42;;;1.33;;
15002;SDS011;7597;53.590;10.020;2022-09-21T13:01:51;1.50;;;1.40;;
15002;SDS011;7597;53.590;10.020;2022-09-21T13:07:31;1.55;;;1.30;;
15002;SDS011;7597;53.590;10.020;2022-09-21T13:10:18;2.00;;;1.20;;
15002;SDS011;7597;53.590;10.020;2022-09-21T13:15:52;1.52;;;0.98;;
15002;SDS011;7597;53.590;10.020;2022-09-21T13:20:45;1.92;;;1.30;;
15002;SDS011;7597;53.590;10.020;2022-09-21T13:23:15;1.98;;;1.30;;
15002;SDS011;7597;53.590;10.020;2022-09-21T13:25:41;1.75;;;1.65;;
15002;SDS011;7597;53.590;10.020;2022-09-21T13:33:39;4.65;;;4.15;;
15002;SDS011;7597;53.590;10.020;2022-09-21T13:36:09;6.93;;;5.85;;
15002;SDS011;7597;53.590;10.020;2022-09-21T13:41:23;2.83;;;1.58;;
15002;SDS011;7597;53.590;10.020;2022-09-21T13:46:53;1.48;;;1.37;;
15002;SDS011;7597;53.590;10.020;2022-09-21T13:49:24;1.40;;;1.30;;
15002;SDS011;7597;53.590;10.020;2022-09-21T13:51:53;4.35;;;3.55;;
15002;SDS011;7597;53.590;10.020;2022-09-21T13:54:23;4.10;;;2.75;;
15002;SDS011;7597;53.590;10.020;2022-09-21T13:56:56;3.87;;;3.22;;
15002;SDS011;7597;53.590;10.020;2022-09-21T13:59:22;2.92;;;2.45;;
15002;SDS011;7597;53.590;10.020;2022-09-21T14:01:49;2.67;;;2.12;;
15002;SDS011;7597;53.590;10.020;2022-09-21T14:04:17;2.12;;;1.58;;
15002;SDS011;7597;53.590;10.020;2022-09-21T14:06:44;1.95;;;1.80;;
15002;SDS011;7597;53.590;10.020;2022-09-21T14:11:44;3.22;;;1.52;;
15002;SDS011;7597;53.590;10.020;2022-09-21T14:14:13;2.28;;;1.65;;
15002;SDS011;7597;53.590;10.020;2022-09-21T14:16:55;2.28;;;1.85;;
15002;SDS011;7597;53.590;10.020;2022-09-21T14:20:27;2.00;;;1.80;;
15002;SDS011;7597;53.590;10.020;2022-09-21T14:22:35;3.85;;;2.00;;
15002;SDS011;7597;53.590;10.020;2022-09-21T14:27:42;1.60;;;1.50;;
15002;SDS011;7597;53.590;10.020;2022-09-21T14:30:15;1.60;;;1.50;;
15002;SDS011;7597;53.590;10.020;2022-09-21T14:32:45;3.03;;;1.70;;
15002;SDS011;7597;53.590;10.020;2022-09-21T14:35:15;3.95;;;2.90;;
15002;SDS011;7597;53.590;10.020;2022-09-21T14:37:45;2.72;;;1.90;;
15002;SDS011;7597;53.590;10.020;2022-09-21T14:40:16;4.72;;;4.32;;
15002;SDS011;7597;53.590;10.020;2022-09-21T14:42:43;3.08;;;2.78;;
15002;SDS011;7597;53.590;10.020;2022-09-21T14:45:13;3.08;;;1.77;;
15002;SDS011;7597;53.590;10.020;2022-09-21T14:47:59;1.80;;;1.70;;
15002;SDS011;7597;53.590;10.020;2022-09-21T14:50:28;2.00;;;1.60;;
15002;SDS011;7597;53.590;10.020;2022-09-21T14:55:40;2.12;;;1.80;;
15002;SDS011;7597;53.590;10.020;2022-09-21T14:58:13;2.95;;;2.17;;
15002;SDS011;7597;53.590;10.020;2022-09-21T15:00:48;9.25;;;8.13;;
15002;SDS011;7597;53.590;10.020;2022-09-21T15:03:35;9.40;;;8.48;;
15002;SDS011;7597;53.590;10.020;2022-09-21T15:09:06;3.47;;;3.17;;
15002;SDS011;7597;53.590;10.020;2022-09-21T15:11:52;5.20;;;4.15;;
15002;SDS011;7597;53.590;10.020;2022-09-21T15:14:27;3.45;;;2.83;;
15002;SDS011;7597;53.590;10.020;2022-09-21T15:16:54;3.92;;;3.53;;
15002;SDS011;7597;53.590;10.020;2022-09-21T15:19:22;4.25;;;2.87;;
15002;SDS011;7597;53.590;10.020;2022-09-21T15:21:52;2.58;;;1.67;;
15002;SDS011;7597;53.590;10.020;2022-09-21T15:24:25;2.28;;;1.87;;
15002;SDS011;7597;53.590;10.020;2022-09-21T15:26:50;3.05;;;2.33;;
15002;SDS011;7597;53.590;10.020;2022-09-21T15:29:23;1.02;;;1.00;;
15002;SDS011;7597;53.590;10.020;2022-09-21T15:31:47;2.35;;;1.40;;
15002;SDS011;7597;53.590;10.020;2022-09-21T15:34:14;3.20;;;2.30;;
15002;SDS011;7597;53.590;10.020;2022-09-21T15:37:04;2.17;;;1.95;;
15002;SDS011;7597;53.590;10.020;2022-09-21T15:39:43;2.22;;;2.03;;
15002;SDS011;7597;53.590;10.020;2022-09-21T15:42:13;2.22;;;1.98;;
15002;SDS011;7597;53.590;10.020;2022-09-21T15:44:38;2.30;;;2.03;;
15002;SDS011;7597;53.590;10.020;2022-09-21T15:47:06;4.05;;;3.30;;
15002;SDS011;7597;53.590;10.020;2022-09-21T15:49:33;16.83;;;12.02;;
15002;SDS011;7597;53.590;10.020;2022-09-21T15:52:00;9.10;;;6.80;;
15002;SDS011;7597;53.590;10.020;2022-09-21T15:54:29;6.18;;;3.20;;
15002;SDS011;7597;53.590;10.020;2022-09-21T15:56:55;3.05;;;1.98;;
15002;SDS011;7597;53.590;10.020;2022-09-21T15:59:22;3.65;;;2.10;;
15002;SDS011;7597;53.590;10.020;2022-09-21T16:01:52;4.43;;;2.30;;
15002;SDS011;7597;53.590;10.020;2022-09-21T16:04:19;2.42;;;1.75;;
15002;SDS011;7597;53.590;10.020;2022-09-21T16:06:47;3.12;;;2.08;;
15002;SDS011;7597;53.590;10.020;2022-09-21T16:11:57;1.62;;;1.52;;
15002;SDS011;7597;53.590;10.020;2022-09-21T16:14:23;5.15;;;1.37;;
15002;SDS011;7597;53.590;10.020;2022-09-21T16:22:37;2.03;;;1.77;;
15002;SDS011;7597;53.590;10.020;2022-09-21T16:27:49;2.50;;;1.60;;
15002;SDS011;7597;53.590;10.020;2022-09-21T16:32:54;2.00;;;1.70;;
15002;SDS011;7597;53.590;10.020;2022-09-21T16:35:25;1.55;;;1.40;;
15002;SDS011;7597;53.590;10.020;2022-09-21T16:37:51;2.08;;;1.50;;
15002;SDS011;7597;53.590;10.020;2022-09-21T16:40:18;2.08;;;1.50;;
15002;SDS011;7597;53.590;10.020;2022-09-21T16:42:44;5.75;;;4.00;;
15002;SDS011;7597;53.590;10.020;2022-09-21T16:45:15;15.45;;;11.80;;
15002;SDS011;7597;53.590;10.020;2022-09-21T16:47:38;6.05;;;4.32;;
15002;SDS011;7597;53.590;10.020;2022-09-21T16:50:05;6.65;;;3.90;;